x

Port Wing, Wi (pngw3) Weather Station

3:40am - Mon 3rd Aug 2015 All times are CDT. -5 hours from GMT.

  • Wind
    7mph, 14mph gusts
  • Air Temp 62°f
  • Sea Pressure 1008.1mb
  • Port Wing, Wi
  • Port Wing, Wi

More Historic Weather Station data

Upgrade to MSW Pro to gain access to the past 30 days of data for over 8000 Wavebouys and Weather Stations around the globe.

Join Pro

Comparision Forecast

View Surf forecast
   
Mon 08/03 3:40am 7 14 mph 1008.1mb 62f
3:30am 8 13 mph 1008.1mb 62f
3:20am 8 11 mph 1008.1mb 62f
3:10am 8 14 mph 1008.1mb 62f
3:00am 9 13 mph 1008.1mb 62f
2:40am 7 10 mph 1008.1mb 62f
2:30am 7 9 mph 1008.1mb 62f
2:20am 3 6 mph 1008.1mb 61f
2:10am 5 6 mph 1008.1mb 61f
2:00am 1 2 mph 1008.1mb 61f
1:40am  -  1 mph 1008.5mb 63f
1:30am  -  2 mph 1008.5mb 63f
1:20am 2 5 mph 1008.1mb 63f
1:10am 2 6 mph 1008.1mb 63f
1:00am 2 3 mph 1008.1mb 62f
12:40am 3 5 mph 1007.8mb 64f
12:30am 5 9 mph 1007.8mb 64f
12:20am 7 11 mph 1007.8mb 64f
12:10am 8 11 mph 1007.8mb 64f
12:00am 8 11 mph 1007.8mb 64f
Sun 08/02 11:40pm 8 11 mph 1007.5mb 65f
11:30pm 8 10 mph 1007.5mb 64f
11:20pm 6 9 mph 1007.5mb 63f
11:10pm 3 7 mph 1007.5mb 65f
11:00pm 5 8 mph 1007.1mb 66f
10:40pm 6 8 mph 1007.5mb 66f
10:30pm 6 9 mph 1007.1mb 66f
10:20pm 8 10 mph 1007.1mb 66f
10:10pm 7 9 mph 1007.1mb 65f
10:00pm 7 9 mph 1007.1mb 65f
9:40pm 6 8 mph 1007.1mb 65f
9:30pm 6 7 mph 1007.1mb 65f
9:20pm 5 6 mph 1007.1mb 64f
9:10pm 5 7 mph 1006.8mb 65f
9:00pm 5 7 mph 1006.4mb 66f
8:40pm 7 10 mph 1006.4mb 66f
8:30pm 8 11 mph 1006.4mb 67f
8:20pm 9 14 mph 1006.4mb 67f
8:10pm 13 15 mph 1006.4mb 67f
8:00pm 13 17 mph 1006.1mb 67f
7:40pm 13 16 mph 1005.8mb 67f
7:30pm 11 15 mph 1005.8mb 66f
7:20pm 13 15 mph 1005.8mb 66f
7:10pm 14 16 mph 1005.4mb 67f
7:00pm 9 13 mph 1005.4mb 67f
6:40pm 9 11 mph 1005.1mb 69f
6:30pm 7 8 mph 1005.1mb 68f
6:20pm 7 9 mph 1005.1mb 67f
6:10pm 7 11 mph 1005.1mb 67f
6:00pm 8 9 mph 1005.1mb 68f
5:40pm 6 10 mph 1005.1mb 68f
5:30pm 6 7 mph 1005.1mb 68f
5:20pm 6 8 mph 1005.1mb 67f
5:10pm 7 9 mph 1005.1mb 67f
5:00pm 6 9 mph 1005.1mb 67f
4:40pm 8 14 mph 1004.7mb 67f
4:30pm 13 17 mph 1004.7mb 68f
4:20pm 16 21 mph 1004.7mb 67f
4:10pm 13 28 mph 1004.4mb 66f
4:00pm 23 28 mph 1004.7mb 69f
3:40pm 10 15 mph 1004.1mb 73f
3:30pm 11 16 mph 1004.1mb 74f
3:20pm 8 14 mph 1004.1mb 74f
3:10pm 8 14 mph 1004.1mb 74f
3:00pm 10 15 mph 1004.1mb 73f
2:40pm 10 15 mph 1004.4mb 72f
2:30pm 9 15 mph 1004.4mb 71f
2:20pm 8 13 mph 1004.4mb 71f
2:10pm 10 16 mph 1004.4mb 70f
2:00pm 11 15 mph 1004.4mb 70f
1:40pm 10 16 mph 1004.4mb 69f
1:30pm 13 18 mph 1004.4mb 69f
1:20pm 14 16 mph 1004.4mb 69f
1:10pm 13 16 mph 1004.4mb 69f
1:00pm 13 17 mph 1004.1mb 69f
12:40pm 8 14 mph 1004.1mb 69f
12:30pm 9 13 mph 1004.1mb 69f
12:20pm 10 15 mph 1004.1mb 69f
12:10pm 9 15 mph 1004.1mb 69f
12:00pm 9 13 mph 1004.1mb 68f
11:40am 7 9 mph 1004.1mb 68f
11:30am 5 6 mph 1003.7mb 68f
11:20am 2 8 mph 1003mb 68f
11:10am 3 5 mph 1003.4mb 68f
11:00am 2 8 mph 1003.4mb 68f
10:40am 6 8 mph 1003.7mb 68f
10:30am 7 8 mph 1003.7mb 68f
10:20am 6 8 mph 1003.7mb 67f
10:10am 3 8 mph 1002.7mb 66f
10:00am 5 9 mph 1002.4mb 65f
9:43am 13 34 mph 1004.4mb 71f
9:40am 17 22 mph 1004.7mb 71f
9:30am 6 7 mph 1003mb 72f
9:20am 5 7 mph 1002.4mb 72f
9:10am 5 6 mph 1002.7mb 72f
9:00am 3 6 mph 1002.4mb 72f
8:40am 3 6 mph 1003mb 70f
8:30am 3 6 mph 1003.4mb 69f
8:20am 5 9 mph 1004.1mb 69f
8:10am 7
mph
1004.4mb 69f
8:00am 3 6 mph 1003.7mb 68f
7:40am 5 7 mph 1003.7mb 67f
7:30am 6 8 mph 1003.7mb 66f
7:20am 5 6 mph 1003.7mb 66f
7:10am 5 7 mph 1003.7mb 65f
7:00am 6 7 mph 1004.1mb 65f
6:40am 5 8 mph 1003.7mb 64f
6:30am 7 8 mph 1003.4mb 64f
6:20am 2 5 mph 1003.4mb 64f
6:10am 3 5 mph 1003.7mb 64f
6:00am 2 5 mph 1004.1mb 64f
5:40am 2 3 mph 1003.7mb 65f
5:30am 2 3 mph 1004.1mb 64f
5:20am 2 6 mph 1004.4mb 64f
5:10am 7 9 mph 1004.1mb 64f
5:00am 7 10 mph 1005.1mb 65f
4:40am 2 8 mph 1005.1mb 66f
4:30am 2 3 mph 1004.4mb 66f
4:20am 2 3 mph 1004.7mb 66f
4:10am 2 3 mph 1005.1mb 65f
4:00am 3 5 mph 1005.1mb 65f
3:50am 3 5 mph 1004.7mb 65f
3:40am  -  3 mph 1004.7mb 66f
3:30am 2 5 mph 1004.7mb 66f
3:20am 3
mph
1004.4mb 65f
3:10am 1 2 mph 1004.1mb 66f
3:00am  -  1 mph 1004.1mb 66f
2:50am  -  2 mph 1004.1mb 66f
2:40am 1 2 mph 1004.4mb 66f
2:30am  -  1 mph 1004.4mb 65f
2:20am  -  1 mph 1004.4mb 65f
2:10am  -  2 mph 1004.7mb 66f
2:00am  -  2 mph 1004.7mb 66f
1:50am 2 3 mph 1004.7mb 66f
1:40am 3 5 mph 1004.7mb 67f
1:30am 1 3 mph 1004.7mb 67f
1:20am 2 3 mph 1004.7mb 67f
1:10am 2 3 mph 1005.1mb 67f
1:00am 2 6 mph 1005.1mb 67f
12:50am 5 7 mph 1005.1mb 67f
12:40am 2 5 mph 1005.4mb 66f
12:30am 2 3 mph 1005.8mb 67f
12:20am  -  2 mph 1006.1mb 67f
12:10am  -  2 mph 1006.1mb 67f
12:00am 1 6 mph 1006.1mb 68f
Sat 08/01 11:50pm 5 6 mph 1006.4mb 68f
11:40pm 3 6 mph 1006.4mb 69f
11:30pm 5 7 mph 1006.4mb 70f
11:20pm 5 9 mph 1006.4mb 70f
11:10pm 7 10 mph 1006.4mb 71f
11:00pm 8 10 mph 1006.8mb 71f
10:50pm 7 10 mph 1006.8mb 71f
10:40pm 7 10 mph 1006.8mb 71f
10:30pm 7 11 mph 1006.8mb 71f
10:20pm 8 11 mph 1006.8mb 71f
10:10pm 8 10 mph 1006.8mb 71f
10:00pm 7 10 mph 1007.1mb 71f
9:50pm 7 9 mph 1007.1mb 72f
9:40pm 7 9 mph 1007.1mb 71f
9:30pm 7 9 mph 1007.1mb 72f
9:20pm 7 8 mph 1006.8mb 72f
9:10pm 7 9 mph 1007.1mb 72f
9:00pm 7 9 mph 1007.1mb 72f
8:50pm 8 10 mph 1007.1mb 73f
8:40pm 6 8 mph 1007.1mb 74f
8:30pm 6 9 mph 1007.1mb 74f
8:20pm 7 9 mph 1007.1mb 75f
8:10pm 8 10 mph 1007.5mb 77f
8:00pm 7 13 mph 1007.5mb 77f
7:50pm 9 13 mph 1007.5mb 78f
7:40pm 7 10 mph 1007.5mb 79f
7:30pm 8 10 mph 1007.5mb 79f
7:20pm 7 13 mph 1007.8mb 79f
7:10pm 9 15 mph 1007.8mb 80f
7:00pm 10 18 mph 1007.8mb 80f
6:50pm 11 20 mph 1007.8mb 81f
6:40pm 10 18 mph 1008.1mb 81f
6:30pm 13 20 mph 1008.1mb 80f
6:20pm 11 18 mph 1008.1mb 80f
6:10pm 11 15 mph 1008.1mb 80f
6:00pm 13 16 mph 1008.5mb 79f
5:50pm 10 15 mph 1008.5mb 80f
5:40pm 10 15 mph 1008.8mb 79f
5:30pm 10 15 mph 1008.8mb 79f
5:20pm 11 15 mph 1009.1mb 80f
5:10pm 11 15 mph 1009.1mb 80f
5:00pm 10 15 mph 1009.1mb 80f
4:50pm 9 16 mph 1009.5mb 79f
4:40pm 11 14 mph 1009.8mb 79f
4:30pm 10 16 mph 1009.8mb 78f
4:20pm 11 15 mph 1009.8mb 78f
4:10pm 10 16 mph 1010.2mb 79f
4:00pm 10 15 mph 1010.2mb 79f
3:50pm 11 15 mph 1010.2mb 78f
3:40pm 11 17 mph 1010.2mb 78f
3:30pm 13 15 mph 1010.5mb 78f
3:20pm 11 17 mph 1010.5mb 78f
3:10pm 13 18 mph 1010.5mb 78f
3:00pm 11 16 mph 1010.5mb 78f
2:50pm 13 17 mph 1010.8mb 78f
2:40pm 11 18 mph 1010.8mb 78f
2:30pm 11 15 mph 1011.2mb 77f
2:20pm 13 17 mph 1011.2mb 77f
2:10pm 13 17 mph 1011.5mb 77f
2:00pm 10 16 mph 1011.5mb 77f
1:50pm 11 16 mph 1011.5mb 77f
1:40pm 10 15 mph 1011.5mb 76f
1:30pm 10 16 mph 1011.5mb 76f
1:20pm 10 15 mph 1011.9mb 76f
1:10pm 9 15 mph 1011.9mb 75f
1:00pm 10 13 mph 1011.9mb 75f
12:50pm 8 14 mph 1012.2mb 75f
12:40pm 9 15 mph 1012.2mb 75f
12:30pm 10 15 mph 1012.2mb 74f
12:20pm 7 14 mph 1012.5mb 74f
12:10pm 8 13 mph 1012.5mb 72f
12:00pm 9 13 mph 1012.5mb 72f
11:50am 9 11 mph 1012.9mb 72f
11:40am 9 13 mph 1012.9mb 72f
11:30am 9 13 mph 1012.9mb 72f
11:20am 9 13 mph 1012.9mb 71f
11:10am 9 13 mph 1012.9mb 71f
11:00am 8 11 mph 1012.9mb 70f
10:50am 9 11 mph 1012.9mb 70f
10:40am 8 11 mph 1013.2mb 69f
10:30am 8 13 mph 1013.2mb 69f
10:20am 8 14 mph 1012.9mb 69f
10:10am 8 11 mph 1012.9mb 68f
10:00am 8 13 mph 1013.2mb 68f
9:50am 10 14 mph 1013.2mb 67f
9:40am 10 14 mph 1013.2mb 67f
9:30am 10 14 mph 1013.5mb 67f
9:20am 11 14 mph 1013.2mb 67f
9:10am 8 13 mph 1013.5mb 66f
9:00am 8 11 mph 1013.5mb 66f
8:50am 8 11 mph 1013.5mb 65f
8:40am 8 10 mph 1013.5mb 65f
8:30am 8 11 mph 1013.5mb 65f
8:20am 7 9 mph 1013.5mb 64f
8:10am 8 10 mph 1013.5mb 64f
8:00am 7 10 mph 1013.5mb 63f
7:50am 6 8 mph 1013.5mb 63f
7:40am 3 6 mph 1013.5mb 62f
7:30am 5 6 mph 1013.5mb 60f
7:20am 5 7 mph 1013.5mb 60f
7:10am 5 6 mph 1013.5mb 59f
7:00am 3 6 mph 1013.5mb 59f
6:50am 5 6 mph 1013.5mb 59f
6:40am 3 7 mph 1013.5mb 58f
6:30am 6 7 mph 1013.5mb 58f
6:20am 5 6 mph 1013.5mb 58f
6:10am 5 6 mph 1013.5mb 58f
6:00am 3 6 mph 1013.5mb 57f
5:50am 5 7 mph 1013.5mb 57f
5:40am 6 8 mph 1013.5mb 57f
5:30am 6 8 mph 1013.5mb 58f
5:20am 6 10 mph 1013.5mb 61f
5:10am 9 11 mph 1013.5mb 61f
5:00am 8 9 mph 1013.5mb 61f
4:50am 5 10 mph 1013.5mb 62f
4:40am 8 13 mph 1013.5mb 63f
4:30am 9 14 mph 1013.5mb 63f
4:20am 10 13 mph 1013.5mb 62f
4:10am 9 11 mph 1013.2mb 62f
4:00am 10 13 mph 1013.5mb 62f
3:50am 9 13 mph 1013.5mb 63f
3:40am 10 13 mph 1013.5mb 63f
3:30am 8 13 mph 1013.5mb 64f
3:20am 10 13 mph 1013.5mb 64f
3:10am 9 13 mph 1013.5mb 64f
3:00am 9 14 mph 1013.2mb 64f
2:50am 9 14 mph 1013.2mb 64f
2:40am 10 15 mph 1013.2mb 65f
2:30am 11 16 mph 1013.2mb 65f
2:20am 9 15 mph 1013.2mb 65f
2:10am 11 16 mph 1013.2mb 66f
2:00am 11 16 mph 1013.2mb 66f
1:50am 13 17 mph 1013.2mb 65f
1:40am 11 15 mph 1013.2mb 64f
1:30am 8 10 mph 1013.2mb 64f
1:20am 9 11 mph 1013.2mb 63f
1:10am 8 10 mph 1013.2mb 64f
1:00am 7 9 mph 1013.5mb 64f
12:50am 6 9 mph 1013.2mb 65f
12:40am 7 9 mph 1013.2mb 65f
12:30am 5 8 mph 1013.5mb 63f
12:20am 2 6 mph 1013.5mb 63f
12:10am 6 7 mph 1013.2mb 64f
12:00am 7 13 mph 1013.2mb 65f
Fri 07/31 11:50pm 10 15 mph 1013.2mb 68f
11:40pm 11 15 mph 1013.2mb 68f
11:30pm 11 15 mph 1013.2mb 68f
11:20pm 11 16 mph 1013.2mb 68f
11:10pm 11 17 mph 1013.2mb 68f
11:00pm 11 16 mph 1012.9mb 69f
10:50pm 13 17 mph 1012.9mb 69f
10:40pm 11 17 mph 1012.9mb 69f
10:30pm 8 14 mph 1012.9mb 68f
10:20pm 10 16 mph 1012.9mb 69f
10:10pm 11 15 mph 1012.9mb 68f
10:00pm 9 13 mph 1012.9mb 68f
9:50pm 8 11 mph 1012.9mb 67f
9:40pm 8 13 mph 1012.9mb 68f
9:30pm 9 13 mph 1012.5mb 68f
9:20pm 8 14 mph 1012.5mb 67f
9:10pm 7 8 mph 1012.5mb 67f
9:00pm 5 8 mph 1012.5mb 67f
8:50pm 5 6 mph 1012.5mb 67f
8:40pm 5 10 mph 1012.5mb 68f
8:30pm 6 7 mph 1012.5mb 69f
8:20pm 5 8 mph 1012.5mb 70f
8:10pm 5 9 mph 1012.5mb 71f
8:00pm 6 8 mph 1012.5mb 71f
7:50pm 5 7 mph 1012.5mb 73f
7:40pm 3 5 mph 1012.2mb 73f
7:30pm 2 5 mph 1012.2mb 74f
7:20pm 3 5 mph 1012.5mb 74f
7:10pm 3 6 mph 1012.5mb 73f
7:00pm 5 6 mph 1012.5mb 72f
6:50pm 5
mph
1012.5mb 72f
5:40pm 1 3 mph 1012.9mb 72f
5:30pm 1 2 mph 1012.9mb 72f
5:20pm 2 5 mph 1013.2mb 73f
5:10pm 3 6 mph 1013.2mb 72f
5:00pm 3 5 mph 1012.9mb 71f
4:50pm 5 11 mph 1013.2mb 69f
4:40pm 7 15 mph 1013.2mb 69f
4:30pm 14 21 mph 1013.2mb 73f
4:20pm 11 16 mph 1012.9mb 74f
4:10pm 7 11 mph 1012.9mb 73f
4:00pm 8 11 mph 1012.9mb 72f
3:50pm 10 13 mph 1013.2mb 72f
3:40pm 9 14 mph 1013.2mb 72f
3:30pm 10 14 mph 1013.5mb 71f
3:20pm 11 26 mph 1013.5mb 69f
3:10pm 15 21 mph 1013.9mb 72f
3:00pm 8 14 mph 1013.2mb 72f
2:50pm 10 15 mph 1013.2mb 71f
2:40pm 8 10 mph 1013.5mb 72f
2:30pm 6 9 mph 1013.9mb 71f
2:20pm 5 9 mph 1013.9mb 70f
2:10pm 7 16 mph 1013.9mb 69f
2:00pm 11 24 mph 1013.9mb 68f
1:50pm 13 20 mph 1013.9mb 70f
1:40pm 13 15 mph 1013.9mb 71f
1:30pm 13 16 mph 1013.9mb 70f
1:20pm 13 18 mph 1013.9mb 71f
1:10pm 13 17 mph 1014.2mb 71f
1:00pm 13 16 mph 1014.2mb 70f
12:50pm 13 17 mph 1014.6mb 70f
12:40pm 13 17 mph 1014.2mb 70f
12:30pm 10 17 mph 1014.6mb 69f
12:20pm 13 17 mph 1014.6mb 70f
12:10pm 14 17 mph 1014.6mb 70f
12:00pm 14 20 mph 1014.9mb 70f
11:50am 15 20 mph 1014.9mb 70f
11:40am 13 17 mph 1014.9mb 70f
11:30am 15 21 mph 1014.9mb 70f
11:20am 14 21 mph 1014.9mb 69f
11:10am 17 21 mph 1014.6mb 69f
11:00am 15 22 mph 1014.9mb 69f
10:50am 14 21 mph 1014.9mb 69f
10:40am 16 23 mph 1014.9mb 68f
10:30am 15 21 mph 1014.6mb 68f
10:20am 14 18 mph 1014.9mb 68f
10:10am 14 20 mph 1014.6mb 68f
10:00am 16 21 mph 1014.6mb 67f
9:50am 15 21 mph 1014.6mb 67f
9:40am 15 20 mph 1014.6mb 67f
9:30am 15 20 mph 1014.6mb 67f
9:20am 16 22 mph 1014.6mb 66f
9:10am 15 22 mph 1014.6mb 66f
9:00am 16 22 mph 1014.6mb 66f
8:50am 17 22 mph 1014.6mb 66f
8:40am 16 21 mph 1014.6mb 66f
8:30am 15 21 mph 1014.6mb 65f
8:20am 16 20 mph 1014.6mb 65f
8:10am 15 21 mph 1014.6mb 65f
8:00am 13 20 mph 1014.2mb 65f
7:50am 14 18 mph 1014.2mb 65f
7:40am 11 18 mph 1014.2mb 65f
7:30am 11 18 mph 1014.2mb 65f
7:20am 10 16 mph 1014.2mb 65f
7:10am 11 18 mph 1014.2mb 65f
7:00am 11 18 mph 1013.9mb 65f
6:50am 13 18 mph 1013.9mb 65f
6:40am 11 17 mph 1013.5mb 65f
6:30am 14 18 mph 1013.5mb 65f
6:20am 10 17 mph 1013.5mb 65f
6:10am 14 21 mph 1013.5mb 65f
6:00am 14 18 mph 1013.2mb 65f
5:50am 13 18 mph 1013.2mb 65f
5:40am 15 20 mph 1013.2mb 65f
5:30am 13 20 mph 1012.9mb 66f
5:20am 13 18 mph 1012.9mb 66f
5:10am 11 18 mph 1012.9mb 66f
5:00am 11 15 mph 1012.9mb 65f
4:50am 7 9 mph 1012.9mb 64f
4:40am 7 10 mph 1012.5mb 65f
4:30am 7 10 mph 1012.5mb 65f
4:20am 6 8 mph 1012.9mb 65f
4:10am 7 9 mph 1012.9mb 65f
4:00am 6 10 mph 1012.9mb 66f
3:50am 9 11 mph 1012.9mb 67f
3:40am 7 11 mph 1013.2mb 67f
3:30am 9 14 mph 1012.9mb 67f
3:20am 11 15 mph 1012.9mb 67f
3:10am 10 14 mph 1012.9mb 67f
3:00am 9 16 mph 1012.9mb 67f
2:50am 10 15 mph 1012.9mb 66f
2:40am 10 14 mph 1012.9mb 66f
2:30am 9 16 mph 1012.9mb 67f
2:20am 11 17 mph 1012.9mb 67f
2:10am 9 15 mph 1012.9mb 68f
2:00am 10 16 mph 1012.9mb 68f
1:50am 10 17 mph 1012.9mb 69f
1:40am 11 16 mph 1012.9mb 70f
1:30am 11 16 mph 1012.5mb 70f
1:20am 10 15 mph 1012.5mb 70f
1:10am 9 15 mph 1012.5mb 69f
1:00am 9 11 mph 1012.5mb 68f
12:50am 8 11 mph 1012.5mb 68f
12:40am 8 11 mph 1012.5mb 69f
12:30am 8 11 mph 1012.5mb 69f
12:20am 8 11 mph 1012.5mb 69f
12:10am 8 13 mph 1012.5mb 69f
12:00am 9 13 mph 1012.5mb 69f
Thu 07/30 11:50pm 9 11 mph 1012.5mb 69f
11:40pm 8 10 mph 1012.5mb 69f
11:30pm 8 11 mph 1012.9mb 69f
11:20pm 8 10 mph 1012.9mb 69f
11:10pm 7 9 mph 1013.2mb 69f
11:00pm 7 10 mph 1012.9mb 69f
10:50pm 7 10 mph 1013.2mb 70f
10:40pm 8 16 mph 1013.2mb 74f
10:30pm 11 17 mph 1012.9mb 73f
10:20pm 14 17 mph 1012.9mb 73f
10:10pm 13 17 mph 1012.9mb 73f
10:00pm 13 17 mph 1012.9mb 74f
9:50pm 13 18 mph 1012.9mb 73f
9:40pm 13 16 mph 1012.9mb 73f
9:30pm 13 17 mph 1012.9mb 72f
9:20pm 13 16 mph 1012.9mb 72f
9:10pm 11 17 mph 1012.9mb 73f
9:00pm 11 18 mph 1012.9mb 73f
8:50pm 11 17 mph 1012.5mb 73f
8:40pm 13 17 mph 1012.5mb 73f
8:30pm 11 15 mph 1012.5mb 73f
8:20pm 11 17 mph 1012.5mb 73f
8:10pm 13 17 mph 1012.2mb 73f
8:00pm 13 17 mph 1012.2mb 74f
7:50pm 13 18 mph 1012.5mb 74f
7:40pm 15 20 mph 1012.2mb 74f
7:30pm 15 22 mph 1012.2mb 74f
7:20pm 15 20 mph 1012.2mb 74f
7:10pm 15 23 mph 1012.2mb 75f
7:00pm 16 22 mph 1012.2mb 75f
6:50pm 15 20 mph 1012.2mb 75f
6:40pm 14 21 mph 1012.2mb 75f
6:30pm 16 22 mph 1012.2mb 75f
6:20pm 15 22 mph 1012.2mb 75f
6:10pm 16 21 mph 1012.2mb 76f
6:00pm 16 21 mph 1012.2mb 76f
5:50pm 16 24 mph 1012.2mb 76f
5:40pm 17 25 mph 1012.2mb 75f
5:30pm 17 26 mph 1012.2mb 76f
5:20pm 16 24 mph 1012.2mb 77f
5:10pm 15 22 mph 1012.2mb 77f
5:00pm 15 22 mph 1012.5mb 77f
4:50pm 16 21 mph 1012.2mb 78f
4:40pm 16 23 mph 1012.2mb 78f
4:30pm 13 18 mph 1012.2mb 78f
4:20pm 15 22 mph 1012.5mb 77f
4:10pm 15 20 mph 1012.5mb 76f
4:00pm 10 17 mph 1012.9mb 75f
3:50pm 10 15 mph 1013.2mb 76f
3:40pm 11 15 mph 1013.2mb 76f
3:30pm 8 14 mph 1013.2mb 76f
3:20pm 6 9 mph 1013.2mb 76f
3:10pm 2 6 mph 1013.2mb 76f
3:00pm 1 3 mph 1013.5mb 74f
2:50pm  -  2 mph 1013.5mb 73f
2:40pm 2 5 mph 1013.5mb 73f
2:30pm  -  7 mph 1013.5mb 71f
2:20pm 7 21 mph 1013.5mb 69f
2:10pm 28 48 mph 1013.5mb -
2:05pm 25 43 mph 1013.9mb 70f
2:00pm 15 22 mph 1013.5mb 75f
1:50pm 16 18 mph 1012.9mb 78f
1:40pm 11 18 mph 1013.2mb 77f
1:30pm 14 20 mph 1013.2mb 77f
1:20pm 13 20 mph 1013.5mb 77f
1:10pm 13 20 mph 1013.2mb 77f
1:00pm 14 20 mph 1013.5mb 77f
12:50pm 13 17 mph 1013.5mb 77f
12:40pm 13 18 mph 1013.5mb 76f
12:30pm 13 18 mph 1013.5mb 76f
12:20pm 13 18 mph 1013.9mb 75f
12:10pm 13 17 mph 1013.9mb 75f
12:00pm 11 17 mph 1014.2mb 75f
11:50am 11 17 mph 1014.2mb 74f
11:40am 13 20 mph 1014.2mb 74f
11:30am 11 17 mph 1014.2mb 74f
11:20am 11 17 mph 1013.9mb 74f
11:10am 11 17 mph 1013.9mb 73f
11:00am 11 18 mph 1013.9mb 73f
10:50am 9 17 mph 1013.9mb 72f
10:40am 13 17 mph 1013.9mb 72f
10:30am 11 15 mph 1014.2mb 72f
10:20am 10 17 mph 1014.2mb 71f
10:10am 14 18 mph 1014.2mb 71f
10:00am 15 17 mph 1014.2mb 70f
9:50am 11 20 mph 1013.9mb 70f
9:40am 15 21 mph 1013.9mb 70f